sensor_id;sensor_type;location;lat;lon;timestamp;P1;durP1;ratioP1;P2;durP2;ratioP2
56255;SDS011;57229;51.432;-2.598;2023-11-22T00:00:54;23.35;;;14.75;;
56255;SDS011;57229;51.432;-2.598;2023-11-22T00:03:19;24.63;;;14.57;;
56255;SDS011;57229;51.432;-2.598;2023-11-22T00:05:45;23.30;;;15.07;;
56255;SDS011;57229;51.432;-2.598;2023-11-22T00:08:11;20.63;;;14.63;;
56255;SDS011;57229;51.432;-2.598;2023-11-22T00:10:37;19.48;;;14.27;;
56255;SDS011;57229;51.432;-2.598;2023-11-22T00:13:03;22.50;;;14.52;;
56255;SDS011;57229;51.432;-2.598;2023-11-22T00:15:28;23.75;;;14.00;;
56255;SDS011;57229;51.432;-2.598;2023-11-22T00:17:54;18.92;;;13.57;;
56255;SDS011;57229;51.432;-2.598;2023-11-22T00:20:22;23.35;;;14.30;;
56255;SDS011;57229;51.432;-2.598;2023-11-22T00:22:48;21.90;;;14.10;;
56255;SDS011;57229;51.432;-2.598;2023-11-22T00:25:15;24.88;;;13.98;;
56255;SDS011;57229;51.432;-2.598;2023-11-22T00:27:40;22.60;;;13.95;;
56255;SDS011;57229;51.432;-2.598;2023-11-22T00:30:07;21.88;;;14.18;;
56255;SDS011;57229;51.432;-2.598;2023-11-22T00:32:33;21.00;;;14.55;;
56255;SDS011;57229;51.432;-2.598;2023-11-22T00:34:59;20.17;;;13.23;;
56255;SDS011;57229;51.432;-2.598;2023-11-22T00:37:25;16.80;;;13.25;;
56255;SDS011;57229;51.432;-2.598;2023-11-22T00:39:50;20.60;;;13.63;;
56255;SDS011;57229;51.432;-2.598;2023-11-22T00:42:16;22.70;;;14.02;;
56255;SDS011;57229;51.432;-2.598;2023-11-22T00:44:45;23.02;;;13.60;;
56255;SDS011;57229;51.432;-2.598;2023-11-22T00:47:11;23.88;;;14.15;;
56255;SDS011;57229;51.432;-2.598;2023-11-22T00:49:36;27.52;;;13.85;;
56255;SDS011;57229;51.432;-2.598;2023-11-22T00:52:02;26.52;;;14.27;;
56255;SDS011;57229;51.432;-2.598;2023-11-22T00:54:28;22.10;;;13.88;;
56255;SDS011;57229;51.432;-2.598;2023-11-22T00:56:53;22.80;;;14.45;;
56255;SDS011;57229;51.432;-2.598;2023-11-22T00:59:19;22.85;;;14.88;;
56255;SDS011;57229;51.432;-2.598;2023-11-22T01:01:44;26.38;;;14.65;;
56255;SDS011;57229;51.432;-2.598;2023-11-22T01:04:10;22.95;;;14.35;;
56255;SDS011;57229;51.432;-2.598;2023-11-22T01:06:36;26.30;;;14.95;;
56255;SDS011;57229;51.432;-2.598;2023-11-22T01:09:02;34.65;;;15.15;;
56255;SDS011;57229;51.432;-2.598;2023-11-22T01:11:28;31.05;;;14.70;;
56255;SDS011;57229;51.432;-2.598;2023-11-22T01:13:54;25.90;;;13.52;;
56255;SDS011;57229;51.432;-2.598;2023-11-22T01:16:20;22.23;;;14.38;;
56255;SDS011;57229;51.432;-2.598;2023-11-22T01:18:46;26.30;;;14.45;;
56255;SDS011;57229;51.432;-2.598;2023-11-22T01:21:12;23.65;;;14.55;;
56255;SDS011;57229;51.432;-2.598;2023-11-22T01:23:38;22.05;;;13.98;;
56255;SDS011;57229;51.432;-2.598;2023-11-22T01:26:03;27.55;;;14.38;;
56255;SDS011;57229;51.432;-2.598;2023-11-22T01:28:30;24.17;;;14.13;;
56255;SDS011;57229;51.432;-2.598;2023-11-22T01:30:59;26.00;;;14.25;;
56255;SDS011;57229;51.432;-2.598;2023-11-22T01:33:25;25.83;;;14.63;;
56255;SDS011;57229;51.432;-2.598;2023-11-22T01:35:52;21.65;;;13.70;;
56255;SDS011;57229;51.432;-2.598;2023-11-22T01:38:17;21.83;;;13.48;;
56255;SDS011;57229;51.432;-2.598;2023-11-22T01:40:46;20.02;;;14.25;;
56255;SDS011;57229;51.432;-2.598;2023-11-22T01:43:21;28.95;;;13.77;;
56255;SDS011;57229;51.432;-2.598;2023-11-22T01:45:48;23.80;;;14.10;;
56255;SDS011;57229;51.432;-2.598;2023-11-22T01:48:14;22.27;;;13.93;;
56255;SDS011;57229;51.432;-2.598;2023-11-22T01:50:40;23.33;;;13.73;;
56255;SDS011;57229;51.432;-2.598;2023-11-22T01:53:08;23.92;;;13.15;;
56255;SDS011;57229;51.432;-2.598;2023-11-22T01:55:37;20.73;;;14.43;;
56255;SDS011;57229;51.432;-2.598;2023-11-22T01:58:04;20.27;;;13.32;;
56255;SDS011;57229;51.432;-2.598;2023-11-22T02:00:51;19.38;;;13.02;;
56255;SDS011;57229;51.432;-2.598;2023-11-22T02:03:16;23.25;;;13.00;;
56255;SDS011;57229;51.432;-2.598;2023-11-22T02:05:42;23.98;;;13.48;;
56255;SDS011;57229;51.432;-2.598;2023-11-22T02:08:09;18.00;;;12.55;;
56255;SDS011;57229;51.432;-2.598;2023-11-22T02:10:35;20.90;;;12.95;;
56255;SDS011;57229;51.432;-2.598;2023-11-22T02:13:05;17.20;;;12.07;;
56255;SDS011;57229;51.432;-2.598;2023-11-22T02:15:33;17.75;;;12.38;;
56255;SDS011;57229;51.432;-2.598;2023-11-22T02:17:59;19.30;;;13.02;;
56255;SDS011;57229;51.432;-2.598;2023-11-22T02:20:25;17.27;;;13.25;;
56255;SDS011;57229;51.432;-2.598;2023-11-22T02:22:51;20.40;;;12.82;;
56255;SDS011;57229;51.432;-2.598;2023-11-22T02:25:18;20.95;;;13.63;;
56255;SDS011;57229;51.432;-2.598;2023-11-22T02:27:44;20.48;;;12.63;;
56255;SDS011;57229;51.432;-2.598;2023-11-22T02:30:09;18.00;;;12.98;;
56255;SDS011;57229;51.432;-2.598;2023-11-22T02:32:36;19.88;;;12.77;;
56255;SDS011;57229;51.432;-2.598;2023-11-22T02:35:02;19.33;;;13.02;;
56255;SDS011;57229;51.432;-2.598;2023-11-22T02:37:32;21.45;;;12.73;;
56255;SDS011;57229;51.432;-2.598;2023-11-22T02:40:00;19.13;;;13.55;;
56255;SDS011;57229;51.432;-2.598;2023-11-22T02:42:30;23.52;;;13.73;;
56255;SDS011;57229;51.432;-2.598;2023-11-22T02:44:56;18.45;;;12.63;;
56255;SDS011;57229;51.432;-2.598;2023-11-22T02:47:22;17.27;;;12.55;;
56255;SDS011;57229;51.432;-2.598;2023-11-22T02:49:48;18.13;;;13.50;;
56255;SDS011;57229;51.432;-2.598;2023-11-22T02:52:14;20.55;;;13.25;;
56255;SDS011;57229;51.432;-2.598;2023-11-22T02:54:42;18.48;;;12.88;;
56255;SDS011;57229;51.432;-2.598;2023-11-22T02:57:08;17.25;;;12.80;;
56255;SDS011;57229;51.432;-2.598;2023-11-22T02:59:34;17.48;;;12.68;;
56255;SDS011;57229;51.432;-2.598;2023-11-22T03:02:00;15.32;;;12.43;;
56255;SDS011;57229;51.432;-2.598;2023-11-22T03:04:26;19.65;;;11.98;;
56255;SDS011;57229;51.432;-2.598;2023-11-22T03:06:53;17.63;;;12.35;;
56255;SDS011;57229;51.432;-2.598;2023-11-22T03:09:20;15.52;;;12.35;;
56255;SDS011;57229;51.432;-2.598;2023-11-22T03:11:47;18.45;;;12.43;;
56255;SDS011;57229;51.432;-2.598;2023-11-22T03:14:13;15.85;;;12.15;;
56255;SDS011;57229;51.432;-2.598;2023-11-22T03:16:40;14.43;;;11.80;;
56255;SDS011;57229;51.432;-2.598;2023-11-22T03:19:07;16.48;;;12.55;;
56255;SDS011;57229;51.432;-2.598;2023-11-22T03:21:33;16.75;;;12.65;;
56255;SDS011;57229;51.432;-2.598;2023-11-22T03:24:00;16.15;;;12.15;;
56255;SDS011;57229;51.432;-2.598;2023-11-22T03:26:28;17.27;;;12.15;;
56255;SDS011;57229;51.432;-2.598;2023-11-22T03:28:54;13.70;;;12.07;;
56255;SDS011;57229;51.432;-2.598;2023-11-22T03:31:20;15.35;;;12.80;;
56255;SDS011;57229;51.432;-2.598;2023-11-22T03:33:46;16.55;;;12.38;;
56255;SDS011;57229;51.432;-2.598;2023-11-22T03:36:12;15.93;;;12.40;;
56255;SDS011;57229;51.432;-2.598;2023-11-22T03:38:41;17.67;;;13.35;;
56255;SDS011;57229;51.432;-2.598;2023-11-22T03:41:06;20.35;;;12.55;;
56255;SDS011;57229;51.432;-2.598;2023-11-22T03:43:32;16.85;;;12.75;;
56255;SDS011;57229;51.432;-2.598;2023-11-22T03:45:57;15.63;;;11.50;;
56255;SDS011;57229;51.432;-2.598;2023-11-22T03:48:23;19.05;;;12.20;;
56255;SDS011;57229;51.432;-2.598;2023-11-22T03:50:50;18.48;;;11.90;;
56255;SDS011;57229;51.432;-2.598;2023-11-22T03:53:16;18.95;;;12.02;;
56255;SDS011;57229;51.432;-2.598;2023-11-22T03:55:42;15.65;;;11.93;;
56255;SDS011;57229;51.432;-2.598;2023-11-22T03:58:08;22.70;;;12.40;;
56255;SDS011;57229;51.432;-2.598;2023-11-22T04:00:33;18.58;;;12.30;;
56255;SDS011;57229;51.432;-2.598;2023-11-22T04:03:00;16.33;;;11.85;;
56255;SDS011;57229;51.432;-2.598;2023-11-22T04:05:27;15.60;;;11.45;;
56255;SDS011;57229;51.432;-2.598;2023-11-22T04:07:52;16.27;;;11.85;;
56255;SDS011;57229;51.432;-2.598;2023-11-22T04:10:19;14.93;;;11.15;;
56255;SDS011;57229;51.432;-2.598;2023-11-22T04:12:46;15.43;;;11.32;;
56255;SDS011;57229;51.432;-2.598;2023-11-22T04:15:12;16.05;;;10.50;;
56255;SDS011;57229;51.432;-2.598;2023-11-22T04:17:39;16.23;;;11.48;;
56255;SDS011;57229;51.432;-2.598;2023-11-22T04:20:06;13.60;;;11.50;;
56255;SDS011;57229;51.432;-2.598;2023-11-22T04:22:39;12.48;;;11.20;;
56255;SDS011;57229;51.432;-2.598;2023-11-22T04:25:10;15.05;;;11.63;;
56255;SDS011;57229;51.432;-2.598;2023-11-22T04:27:38;13.90;;;10.73;;
56255;SDS011;57229;51.432;-2.598;2023-11-22T04:30:05;16.20;;;11.23;;
56255;SDS011;57229;51.432;-2.598;2023-11-22T04:32:38;16.80;;;10.38;;
56255;SDS011;57229;51.432;-2.598;2023-11-22T04:35:05;14.25;;;11.02;;
56255;SDS011;57229;51.432;-2.598;2023-11-22T04:37:31;11.68;;;10.38;;
56255;SDS011;57229;51.432;-2.598;2023-11-22T04:39:57;14.45;;;11.00;;
56255;SDS011;57229;51.432;-2.598;2023-11-22T04:42:23;14.30;;;9.73;;
56255;SDS011;57229;51.432;-2.598;2023-11-22T04:44:49;18.50;;;10.50;;
56255;SDS011;57229;51.432;-2.598;2023-11-22T04:47:15;11.15;;;9.93;;
56255;SDS011;57229;51.432;-2.598;2023-11-22T04:49:40;11.43;;;9.73;;
56255;SDS011;57229;51.432;-2.598;2023-11-22T04:52:06;11.98;;;10.23;;
56255;SDS011;57229;51.432;-2.598;2023-11-22T04:54:32;16.83;;;10.55;;
56255;SDS011;57229;51.432;-2.598;2023-11-22T04:56:59;13.43;;;10.48;;
56255;SDS011;57229;51.432;-2.598;2023-11-22T04:59:24;12.30;;;10.73;;
56255;SDS011;57229;51.432;-2.598;2023-11-22T05:01:50;11.80;;;10.60;;
56255;SDS011;57229;51.432;-2.598;2023-11-22T05:04:15;12.27;;;10.10;;
56255;SDS011;57229;51.432;-2.598;2023-11-22T05:06:43;15.18;;;10.27;;
56255;SDS011;57229;51.432;-2.598;2023-11-22T05:09:09;12.82;;;10.88;;
56255;SDS011;57229;51.432;-2.598;2023-11-22T05:11:36;11.82;;;10.48;;
56255;SDS011;57229;51.432;-2.598;2023-11-22T05:14:01;11.63;;;10.40;;
56255;SDS011;57229;51.432;-2.598;2023-11-22T05:16:27;14.07;;;10.90;;
56255;SDS011;57229;51.432;-2.598;2023-11-22T05:18:53;13.07;;;11.02;;
56255;SDS011;57229;51.432;-2.598;2023-11-22T05:21:18;11.63;;;10.50;;
56255;SDS011;57229;51.432;-2.598;2023-11-22T05:23:44;12.32;;;10.77;;
56255;SDS011;57229;51.432;-2.598;2023-11-22T05:26:09;12.10;;;10.85;;
56255;SDS011;57229;51.432;-2.598;2023-11-22T05:28:35;15.50;;;10.90;;
56255;SDS011;57229;51.432;-2.598;2023-11-22T05:31:01;11.95;;;10.68;;
56255;SDS011;57229;51.432;-2.598;2023-11-22T05:33:27;13.27;;;10.60;;
56255;SDS011;57229;51.432;-2.598;2023-11-22T05:35:52;14.85;;;9.95;;
56255;SDS011;57229;51.432;-2.598;2023-11-22T05:38:18;13.02;;;10.73;;
56255;SDS011;57229;51.432;-2.598;2023-11-22T05:40:44;11.90;;;10.60;;
56255;SDS011;57229;51.432;-2.598;2023-11-22T05:43:10;12.13;;;10.07;;
56255;SDS011;57229;51.432;-2.598;2023-11-22T05:45:35;13.48;;;10.85;;
56255;SDS011;57229;51.432;-2.598;2023-11-22T05:48:01;16.80;;;10.73;;
56255;SDS011;57229;51.432;-2.598;2023-11-22T05:50:27;12.85;;;10.02;;
56255;SDS011;57229;51.432;-2.598;2023-11-22T05:52:52;14.75;;;10.70;;
56255;SDS011;57229;51.432;-2.598;2023-11-22T05:55:18;13.05;;;10.93;;
56255;SDS011;57229;51.432;-2.598;2023-11-22T05:57:44;12.98;;;11.20;;
56255;SDS011;57229;51.432;-2.598;2023-11-22T06:00:10;14.90;;;10.82;;
56255;SDS011;57229;51.432;-2.598;2023-11-22T06:02:36;13.32;;;10.68;;
56255;SDS011;57229;51.432;-2.598;2023-11-22T06:05:04;14.98;;;10.65;;
56255;SDS011;57229;51.432;-2.598;2023-11-22T06:07:30;16.48;;;11.98;;
56255;SDS011;57229;51.432;-2.598;2023-11-22T06:09:56;13.65;;;10.90;;
56255;SDS011;57229;51.432;-2.598;2023-11-22T06:12:22;15.40;;;12.02;;
56255;SDS011;57229;51.432;-2.598;2023-11-22T06:14:48;15.57;;;11.02;;
56255;SDS011;57229;51.432;-2.598;2023-11-22T06:17:13;19.15;;;11.25;;
56255;SDS011;57229;51.432;-2.598;2023-11-22T06:19:39;16.20;;;11.07;;
56255;SDS011;57229;51.432;-2.598;2023-11-22T06:22:06;16.98;;;11.65;;
56255;SDS011;57229;51.432;-2.598;2023-11-22T06:24:32;14.18;;;10.68;;
56255;SDS011;57229;51.432;-2.598;2023-11-22T06:26:59;19.83;;;10.95;;
56255;SDS011;57229;51.432;-2.598;2023-11-22T06:29:25;13.00;;;10.45;;
56255;SDS011;57229;51.432;-2.598;2023-11-22T06:31:50;17.35;;;11.27;;
56255;SDS011;57229;51.432;-2.598;2023-11-22T06:34:16;14.15;;;10.95;;
56255;SDS011;57229;51.432;-2.598;2023-11-22T06:36:41;12.85;;;11.20;;
56255;SDS011;57229;51.432;-2.598;2023-11-22T06:39:08;19.02;;;11.43;;
56255;SDS011;57229;51.432;-2.598;2023-11-22T06:41:34;15.80;;;10.63;;
56255;SDS011;57229;51.432;-2.598;2023-11-22T06:44:00;13.50;;;11.15;;
56255;SDS011;57229;51.432;-2.598;2023-11-22T06:46:25;15.25;;;11.32;;
56255;SDS011;57229;51.432;-2.598;2023-11-22T06:48:51;14.80;;;10.93;;
56255;SDS011;57229;51.432;-2.598;2023-11-22T06:51:16;15.07;;;11.05;;
56255;SDS011;57229;51.432;-2.598;2023-11-22T06:53:43;13.52;;;11.05;;
56255;SDS011;57229;51.432;-2.598;2023-11-22T06:56:10;17.23;;;11.30;;
56255;SDS011;57229;51.432;-2.598;2023-11-22T06:58:36;16.83;;;11.75;;
56255;SDS011;57229;51.432;-2.598;2023-11-22T07:01:01;12.90;;;11.18;;
56255;SDS011;57229;51.432;-2.598;2023-11-22T07:03:27;13.82;;;11.13;;
56255;SDS011;57229;51.432;-2.598;2023-11-22T07:05:53;12.32;;;10.50;;
56255;SDS011;57229;51.432;-2.598;2023-11-22T07:08:18;13.18;;;11.38;;
56255;SDS011;57229;51.432;-2.598;2023-11-22T07:10:45;14.02;;;11.35;;
56255;SDS011;57229;51.432;-2.598;2023-11-22T07:13:13;12.65;;;10.98;;
56255;SDS011;57229;51.432;-2.598;2023-11-22T09:45:59;17.20;;;8.27;;
56255;SDS011;57229;51.432;-2.598;2023-11-22T09:48:25;18.85;;;11.00;;
56255;SDS011;57229;51.432;-2.598;2023-11-22T09:53:31;24.05;;;9.77;;
56255;SDS011;57229;51.432;-2.598;2023-11-22T09:55:59;12.43;;;7.78;;
56255;SDS011;57229;51.432;-2.598;2023-11-22T09:58:28;13.15;;;7.40;;
56255;SDS011;57229;51.432;-2.598;2023-11-22T10:00:55;10.45;;;7.15;;
56255;SDS011;57229;51.432;-2.598;2023-11-22T10:03:21;11.25;;;7.40;;
56255;SDS011;57229;51.432;-2.598;2023-11-22T10:05:48;12.20;;;7.10;;
56255;SDS011;57229;51.432;-2.598;2023-11-22T10:08:14;14.48;;;7.28;;
56255;SDS011;57229;51.432;-2.598;2023-11-22T10:10:42;9.70;;;6.90;;
56255;SDS011;57229;51.432;-2.598;2023-11-22T10:13:10;12.10;;;7.00;;
56255;SDS011;57229;51.432;-2.598;2023-11-22T10:15:37;12.65;;;7.15;;
56255;SDS011;57229;51.432;-2.598;2023-11-22T10:18:03;14.55;;;7.10;;
56255;SDS011;57229;51.432;-2.598;2023-11-22T10:20:39;10.43;;;6.72;;
56255;SDS011;57229;51.432;-2.598;2023-11-22T10:23:09;16.00;;;7.28;;
56255;SDS011;57229;51.432;-2.598;2023-11-22T10:25:48;7.82;;;6.50;;
56255;SDS011;57229;51.432;-2.598;2023-11-22T10:28:16;9.40;;;6.65;;
56255;SDS011;57229;51.432;-2.598;2023-11-22T10:30:47;7.55;;;6.85;;
56255;SDS011;57229;51.432;-2.598;2023-11-22T10:33:14;9.82;;;6.50;;
56255;SDS011;57229;51.432;-2.598;2023-11-22T10:35:44;11.75;;;6.50;;
56255;SDS011;57229;51.432;-2.598;2023-11-22T10:38:17;15.73;;;6.70;;
56255;SDS011;57229;51.432;-2.598;2023-11-22T10:40:43;7.13;;;6.43;;
56255;SDS011;57229;51.432;-2.598;2023-11-22T10:43:16;13.95;;;6.53;;
56255;SDS011;57229;51.432;-2.598;2023-11-22T10:45:42;8.90;;;6.13;;
56255;SDS011;57229;51.432;-2.598;2023-11-22T10:48:13;19.13;;;6.30;;
56255;SDS011;57229;51.432;-2.598;2023-11-22T10:50:44;15.13;;;6.35;;
56255;SDS011;57229;51.432;-2.598;2023-11-22T10:53:11;10.35;;;6.82;;
56255;SDS011;57229;51.432;-2.598;2023-11-22T10:55:46;9.30;;;6.32;;
56255;SDS011;57229;51.432;-2.598;2023-11-22T10:58:14;12.93;;;6.57;;
56255;SDS011;57229;51.432;-2.598;2023-11-22T11:00:41;9.65;;;6.10;;
56255;SDS011;57229;51.432;-2.598;2023-11-22T11:03:10;8.95;;;6.18;;
56255;SDS011;57229;51.432;-2.598;2023-11-22T11:05:41;11.18;;;6.68;;
56255;SDS011;57229;51.432;-2.598;2023-11-22T11:08:11;8.40;;;6.05;;
56255;SDS011;57229;51.432;-2.598;2023-11-22T11:10:42;13.82;;;6.20;;
56255;SDS011;57229;51.432;-2.598;2023-11-22T11:13:10;14.93;;;6.18;;
56255;SDS011;57229;51.432;-2.598;2023-11-22T11:15:38;13.30;;;6.40;;
56255;SDS011;57229;51.432;-2.598;2023-11-22T11:18:06;15.15;;;6.45;;
56255;SDS011;57229;51.432;-2.598;2023-11-22T11:20:45;9.85;;;6.25;;
56255;SDS011;57229;51.432;-2.598;2023-11-22T11:23:14;14.23;;;7.03;;
56255;SDS011;57229;51.432;-2.598;2023-11-22T11:25:44;11.13;;;6.63;;
56255;SDS011;57229;51.432;-2.598;2023-11-22T11:28:14;12.00;;;6.13;;
56255;SDS011;57229;51.432;-2.598;2023-11-22T11:30:40;11.45;;;6.30;;
56255;SDS011;57229;51.432;-2.598;2023-11-22T11:33:13;9.73;;;6.55;;
56255;SDS011;57229;51.432;-2.598;2023-11-22T11:38:18;17.05;;;6.50;;
56255;SDS011;57229;51.432;-2.598;2023-11-22T11:40:45;15.27;;;7.00;;
56255;SDS011;57229;51.432;-2.598;2023-11-22T11:43:15;18.30;;;6.95;;
56255;SDS011;57229;51.432;-2.598;2023-11-22T11:45:45;15.77;;;6.72;;
56255;SDS011;57229;51.432;-2.598;2023-11-22T11:48:12;8.48;;;6.97;;
56255;SDS011;57229;51.432;-2.598;2023-11-22T11:50:39;12.80;;;6.50;;
56255;SDS011;57229;51.432;-2.598;2023-11-22T11:53:04;12.75;;;6.47;;
56255;SDS011;57229;51.432;-2.598;2023-11-22T11:55:30;10.23;;;6.78;;
56255;SDS011;57229;51.432;-2.598;2023-11-22T11:57:56;9.57;;;6.70;;
56255;SDS011;57229;51.432;-2.598;2023-11-22T12:00:22;10.52;;;6.75;;
56255;SDS011;57229;51.432;-2.598;2023-11-22T12:02:53;11.80;;;6.95;;
56255;SDS011;57229;51.432;-2.598;2023-11-22T12:05:19;9.50;;;6.70;;
56255;SDS011;57229;51.432;-2.598;2023-11-22T12:07:45;13.50;;;7.03;;
56255;SDS011;57229;51.432;-2.598;2023-11-22T12:10:12;15.52;;;7.57;;
56255;SDS011;57229;51.432;-2.598;2023-11-22T12:12:37;8.65;;;6.40;;
56255;SDS011;57229;51.432;-2.598;2023-11-22T12:15:04;16.05;;;6.85;;
56255;SDS011;57229;51.432;-2.598;2023-11-22T12:17:31;12.80;;;6.78;;
56255;SDS011;57229;51.432;-2.598;2023-11-22T12:20:10;11.05;;;6.50;;
56255;SDS011;57229;51.432;-2.598;2023-11-22T12:22:38;9.48;;;6.60;;
56255;SDS011;57229;51.432;-2.598;2023-11-22T12:25:06;9.38;;;6.32;;
56255;SDS011;57229;51.432;-2.598;2023-11-22T12:27:32;13.52;;;6.70;;
56255;SDS011;57229;51.432;-2.598;2023-11-22T12:29:57;11.35;;;6.03;;
56255;SDS011;57229;51.432;-2.598;2023-11-22T12:32:26;13.45;;;6.90;;
56255;SDS011;57229;51.432;-2.598;2023-11-22T12:34:53;16.10;;;7.05;;
56255;SDS011;57229;51.432;-2.598;2023-11-22T12:37:22;12.32;;;6.55;;
56255;SDS011;57229;51.432;-2.598;2023-11-22T12:39:49;7.93;;;6.13;;
56255;SDS011;57229;51.432;-2.598;2023-11-22T12:42:17;12.20;;;5.88;;
56255;SDS011;57229;51.432;-2.598;2023-11-22T12:44:49;9.07;;;5.43;;
56255;SDS011;57229;51.432;-2.598;2023-11-22T12:47:38;8.82;;;5.60;;
56255;SDS011;57229;51.432;-2.598;2023-11-22T12:50:03;8.00;;;5.68;;
56255;SDS011;57229;51.432;-2.598;2023-11-22T12:52:29;8.93;;;6.20;;
56255;SDS011;57229;51.432;-2.598;2023-11-22T12:54:57;6.38;;;5.78;;
56255;SDS011;57229;51.432;-2.598;2023-11-22T12:57:24;7.07;;;5.70;;
56255;SDS011;57229;51.432;-2.598;2023-11-22T12:59:49;8.45;;;6.15;;
56255;SDS011;57229;51.432;-2.598;2023-11-22T13:02:15;5.97;;;5.47;;
56255;SDS011;57229;51.432;-2.598;2023-11-22T13:04:42;8.80;;;5.57;;
56255;SDS011;57229;51.432;-2.598;2023-11-22T13:07:08;10.35;;;6.07;;
56255;SDS011;57229;51.432;-2.598;2023-11-22T13:09:34;8.73;;;6.93;;
56255;SDS011;57229;51.432;-2.598;2023-11-22T13:12:00;11.20;;;7.28;;
56255;SDS011;57229;51.432;-2.598;2023-11-22T13:14:26;7.78;;;7.07;;
56255;SDS011;57229;51.432;-2.598;2023-11-22T13:16:57;7.72;;;6.93;;
56255;SDS011;57229;51.432;-2.598;2023-11-22T13:19:22;12.98;;;7.00;;
56255;SDS011;57229;51.432;-2.598;2023-11-22T13:21:49;8.95;;;7.72;;
56255;SDS011;57229;51.432;-2.598;2023-11-22T13:24:15;7.18;;;6.57;;
56255;SDS011;57229;51.432;-2.598;2023-11-22T13:26:43;7.68;;;6.25;;
56255;SDS011;57229;51.432;-2.598;2023-11-22T13:29:08;8.38;;;5.20;;
56255;SDS011;57229;51.432;-2.598;2023-11-22T13:31:34;6.45;;;5.55;;
56255;SDS011;57229;51.432;-2.598;2023-11-22T13:34:00;8.55;;;5.97;;
56255;SDS011;57229;51.432;-2.598;2023-11-22T13:36:25;6.82;;;6.10;;
56255;SDS011;57229;51.432;-2.598;2023-11-22T13:38:51;5.90;;;5.30;;
56255;SDS011;57229;51.432;-2.598;2023-11-22T13:41:17;5.70;;;5.30;;
56255;SDS011;57229;51.432;-2.598;2023-11-22T13:43:42;11.23;;;5.82;;
56255;SDS011;57229;51.432;-2.598;2023-11-22T13:46:08;9.85;;;5.80;;
56255;SDS011;57229;51.432;-2.598;2023-11-22T13:48:37;6.05;;;5.55;;
56255;SDS011;57229;51.432;-2.598;2023-11-22T13:51:02;9.02;;;5.60;;
56255;SDS011;57229;51.432;-2.598;2023-11-22T13:53:29;7.75;;;5.72;;
56255;SDS011;57229;51.432;-2.598;2023-11-22T13:55:59;7.75;;;6.00;;
56255;SDS011;57229;51.432;-2.598;2023-11-22T13:58:25;12.00;;;6.93;;
56255;SDS011;57229;51.432;-2.598;2023-11-22T14:00:51;8.43;;;7.03;;
56255;SDS011;57229;51.432;-2.598;2023-11-22T14:03:19;11.48;;;6.53;;
56255;SDS011;57229;51.432;-2.598;2023-11-22T14:05:47;7.03;;;6.40;;
56255;SDS011;57229;51.432;-2.598;2023-11-22T14:08:13;9.30;;;6.90;;
56255;SDS011;57229;51.432;-2.598;2023-11-22T14:10:40;13.18;;;7.18;;
56255;SDS011;57229;51.432;-2.598;2023-11-22T14:13:05;14.13;;;7.82;;
56255;SDS011;57229;51.432;-2.598;2023-11-22T14:15:33;13.45;;;7.78;;
56255;SDS011;57229;51.432;-2.598;2023-11-22T14:17:59;9.82;;;7.80;;
56255;SDS011;57229;51.432;-2.598;2023-11-22T14:20:25;12.35;;;6.90;;
56255;SDS011;57229;51.432;-2.598;2023-11-22T14:22:51;8.98;;;7.53;;
56255;SDS011;57229;51.432;-2.598;2023-11-22T14:25:17;12.32;;;8.00;;
56255;SDS011;57229;51.432;-2.598;2023-11-22T14:27:44;12.40;;;8.18;;
56255;SDS011;57229;51.432;-2.598;2023-11-22T14:30:11;10.20;;;8.25;;
56255;SDS011;57229;51.432;-2.598;2023-11-22T14:32:42;14.10;;;8.07;;
56255;SDS011;57229;51.432;-2.598;2023-11-22T14:35:08;11.88;;;8.07;;
56255;SDS011;57229;51.432;-2.598;2023-11-22T14:37:35;10.68;;;8.10;;
56255;SDS011;57229;51.432;-2.598;2023-11-22T14:40:04;11.40;;;8.70;;
56255;SDS011;57229;51.432;-2.598;2023-11-22T14:42:38;8.93;;;8.10;;
56255;SDS011;57229;51.432;-2.598;2023-11-22T14:45:07;11.10;;;8.40;;
56255;SDS011;57229;51.432;-2.598;2023-11-22T14:47:33;10.77;;;7.85;;
56255;SDS011;57229;51.432;-2.598;2023-11-22T14:50:01;10.45;;;7.75;;
56255;SDS011;57229;51.432;-2.598;2023-11-22T14:52:30;8.00;;;6.43;;
56255;SDS011;57229;51.432;-2.598;2023-11-22T14:54:55;7.75;;;6.60;;
56255;SDS011;57229;51.432;-2.598;2023-11-22T14:57:24;8.98;;;6.55;;
56255;SDS011;57229;51.432;-2.598;2023-11-22T14:59:51;8.75;;;6.32;;
56255;SDS011;57229;51.432;-2.598;2023-11-22T15:02:16;9.95;;;6.15;;
56255;SDS011;57229;51.432;-2.598;2023-11-22T15:04:43;7.05;;;6.38;;
56255;SDS011;57229;51.432;-2.598;2023-11-22T15:07:09;6.90;;;6.25;;
56255;SDS011;57229;51.432;-2.598;2023-11-22T15:09:36;11.68;;;6.70;;
56255;SDS011;57229;51.432;-2.598;2023-11-22T15:12:03;7.80;;;6.95;;
56255;SDS011;57229;51.432;-2.598;2023-11-22T15:14:32;6.80;;;6.20;;
56255;SDS011;57229;51.432;-2.598;2023-11-22T15:16:58;7.07;;;6.20;;
56255;SDS011;57229;51.432;-2.598;2023-11-22T15:19:30;7.45;;;6.63;;
56255;SDS011;57229;51.432;-2.598;2023-11-22T15:21:56;8.88;;;6.32;;
56255;SDS011;57229;51.432;-2.598;2023-11-22T15:24:21;7.65;;;6.78;;
56255;SDS011;57229;51.432;-2.598;2023-11-22T15:26:47;11.57;;;6.50;;
56255;SDS011;57229;51.432;-2.598;2023-11-22T15:29:13;7.38;;;6.40;;
56255;SDS011;57229;51.432;-2.598;2023-11-22T15:31:42;7.88;;;6.55;;
56255;SDS011;57229;51.432;-2.598;2023-11-22T15:34:08;7.25;;;6.00;;
56255;SDS011;57229;51.432;-2.598;2023-11-22T15:36:35;7.38;;;6.18;;
56255;SDS011;57229;51.432;-2.598;2023-11-22T15:39:01;11.77;;;6.90;;
56255;SDS011;57229;51.432;-2.598;2023-11-22T15:41:27;8.40;;;7.07;;
56255;SDS011;57229;51.432;-2.598;2023-11-22T15:43:53;8.13;;;6.90;;
56255;SDS011;57229;51.432;-2.598;2023-11-22T15:46:18;10.93;;;6.75;;
56255;SDS011;57229;51.432;-2.598;2023-11-22T15:48:49;7.65;;;6.70;;
56255;SDS011;57229;51.432;-2.598;2023-11-22T15:51:15;11.57;;;8.55;;
56255;SDS011;57229;51.432;-2.598;2023-11-22T15:53:41;10.68;;;7.00;;
56255;SDS011;57229;51.432;-2.598;2023-11-22T15:56:07;8.48;;;7.40;;
56255;SDS011;57229;51.432;-2.598;2023-11-22T15:58:40;10.05;;;8.40;;
56255;SDS011;57229;51.432;-2.598;2023-11-22T16:01:11;9.05;;;7.80;;
56255;SDS011;57229;51.432;-2.598;2023-11-22T16:03:38;9.50;;;8.18;;
56255;SDS011;57229;51.432;-2.598;2023-11-22T16:06:04;9.73;;;7.95;;
56255;SDS011;57229;51.432;-2.598;2023-11-22T16:08:31;13.23;;;9.02;;
56255;SDS011;57229;51.432;-2.598;2023-11-22T16:10:57;10.35;;;8.50;;
56255;SDS011;57229;51.432;-2.598;2023-11-22T16:13:23;9.70;;;7.70;;
56255;SDS011;57229;51.432;-2.598;2023-11-22T16:15:51;11.90;;;8.40;;
56255;SDS011;57229;51.432;-2.598;2023-11-22T16:18:18;13.07;;;8.60;;
56255;SDS011;57229;51.432;-2.598;2023-11-22T16:20:48;12.85;;;7.47;;
56255;SDS011;57229;51.432;-2.598;2023-11-22T16:23:13;14.23;;;7.55;;
56255;SDS011;57229;51.432;-2.598;2023-11-22T16:25:39;12.65;;;8.68;;
56255;SDS011;57229;51.432;-2.598;2023-11-22T16:28:05;36.65;;;20.67;;
56255;SDS011;57229;51.432;-2.598;2023-11-22T16:30:31;11.90;;;9.02;;
56255;SDS011;57229;51.432;-2.598;2023-11-22T16:32:57;13.38;;;8.45;;
56255;SDS011;57229;51.432;-2.598;2023-11-22T16:35:23;12.73;;;8.73;;
56255;SDS011;57229;51.432;-2.598;2023-11-22T16:37:50;11.63;;;8.05;;
56255;SDS011;57229;51.432;-2.598;2023-11-22T16:40:16;12.35;;;8.07;;
56255;SDS011;57229;51.432;-2.598;2023-11-22T16:42:41;11.38;;;8.95;;
56255;SDS011;57229;51.432;-2.598;2023-11-22T16:45:08;11.82;;;8.95;;
56255;SDS011;57229;51.432;-2.598;2023-11-22T16:47:40;11.65;;;9.15;;
56255;SDS011;57229;51.432;-2.598;2023-11-22T16:50:25;20.10;;;12.18;;
56255;SDS011;57229;51.432;-2.598;2023-11-22T16:52:51;15.35;;;11.25;;